createdAt,value
2018-01-04T00:01:04.033Z,98419.20
2018-01-04T00:03:31.513Z,98417.18
2018-01-04T00:05:58.972Z,98404.75
2018-01-04T00:08:26.391Z,98422.53
2018-01-04T00:10:53.817Z,98432.05
2018-01-04T00:13:21.235Z,98429.41
2018-01-04T00:15:48.641Z,98437.46
2018-01-04T00:18:16.060Z,98436.36
2018-01-04T00:20:43.478Z,98435.01
2018-01-04T00:23:10.959Z,98441.08
2018-01-04T00:25:38.411Z,98441.61
2018-01-04T00:28:05.833Z,98451.05
2018-01-04T00:30:33.241Z,98446.63
2018-01-04T00:33:00.684Z,98452.02
2018-01-04T00:35:28.128Z,98449.42
2018-01-04T00:37:55.515Z,98456.84
2018-01-04T00:40:22.972Z,98458.83
2018-01-04T00:42:50.412Z,98469.72
2018-01-04T00:45:17.812Z,98467.13
2018-01-04T00:47:45.243Z,98480.70
2018-01-04T00:50:12.660Z,98488.97
2018-01-04T00:52:40.065Z,98487.97
2018-01-04T00:55:07.494Z,98491.97
2018-01-04T00:57:34.891Z,98481.59
2018-01-04T01:00:02.298Z,98499.48
2018-01-04T01:02:29.708Z,98491.17
2018-01-04T01:04:57.828Z,98498.48
2018-01-04T01:07:25.259Z,98511.24
2018-01-04T01:09:52.662Z,98521.20
2018-01-04T01:12:20.090Z,98532.91
2018-01-04T01:14:47.555Z,98528.58
2018-01-04T01:17:14.967Z,98532.59
2018-01-04T01:19:42.389Z,98526.63
2018-01-04T01:22:09.861Z,98523.41
2018-01-04T01:24:37.248Z,98523.14
2018-01-04T01:27:04.644Z,98520.58
2018-01-04T01:29:32.048Z,98519.23
2018-01-04T01:31:59.554Z,98518.16
2018-01-04T01:34:27.010Z,98515.06
2018-01-04T01:36:54.482Z,98527.61
2018-01-04T01:39:21.900Z,98511.94
2018-01-04T01:41:49.305Z,98524.09
2018-01-04T01:44:16.737Z,98517.01
2018-01-04T01:46:44.183Z,98511.52
2018-01-04T01:49:15.487Z,98521.66
2018-01-04T01:51:42.907Z,98517.37
2018-01-04T01:54:10.317Z,98519.12
2018-01-04T01:56:37.804Z,98521.28
2018-01-04T01:59:05.204Z,98514.55
2018-01-04T02:01:32.632Z,98528.81
2018-01-04T02:04:00.046Z,98528.03
2018-01-04T02:06:27.532Z,98533.69
2018-01-04T02:08:54.949Z,98524.59
2018-01-04T02:11:22.446Z,98542.09
2018-01-04T02:13:49.872Z,98536.91
2018-01-04T02:16:21.080Z,98550.19
2018-01-04T02:19:00.390Z,98561.59
2018-01-04T02:21:39.735Z,98552.02
2018-01-04T02:24:18.954Z,98571.25
2018-01-04T02:26:58.156Z,98575.66
2018-01-04T02:29:37.363Z,98566.61
2018-01-04T02:32:16.529Z,98582.16
2018-01-04T02:34:56.108Z,98580.59
2018-01-04T02:37:35.317Z,98584.53
2018-01-04T02:43:18.671Z,98571.98
2018-01-04T02:45:58.031Z,98580.17
2018-01-04T02:48:25.446Z,98579.95
2018-01-04T02:50:52.864Z,98586.59
2018-01-04T02:53:20.290Z,98600.06
2018-01-04T02:55:47.728Z,98589.68
2018-01-04T02:58:15.188Z,98605.17
2018-01-04T03:00:42.618Z,98598.06
2018-01-04T03:03:10.019Z,98600.67
2018-01-04T03:05:37.421Z,98608.77
2018-01-04T03:08:04.839Z,98609.44
2018-01-04T03:10:32.252Z,98616.87
2018-01-04T03:12:59.727Z,98614.77
2018-01-04T03:15:27.165Z,98620.43
2018-01-04T03:17:54.636Z,98617.36
2018-01-04T03:20:22.090Z,98609.05
2018-01-04T03:22:55.148Z,98626.80
2018-01-04T03:28:31.250Z,98628.55
2018-01-04T03:31:04.323Z,98628.06
2018-01-04T03:33:37.338Z,98614.89
2018-01-04T03:36:10.299Z,98624.74
2018-01-04T03:38:43.402Z,98635.94
2018-01-04T03:41:16.512Z,98634.73
2018-01-04T03:43:49.598Z,98648.12
2018-01-04T03:46:22.671Z,98648.30
2018-01-04T03:52:02.765Z,98645.99
2018-01-04T03:54:35.815Z,98653.10
2018-01-04T03:57:08.788Z,98661.28
2018-01-04T03:59:49.908Z,98656.28
2018-01-04T04:02:23.018Z,98667.05
2018-01-04T04:04:56.140Z,98671.92
2018-01-04T04:07:27.415Z,98672.03
2018-01-04T04:09:54.826Z,98674.72
2018-01-04T04:12:22.252Z,98678.97
2018-01-04T04:14:49.697Z,98680.25
2018-01-04T04:17:17.160Z,98690.93
2018-01-04T04:19:44.576Z,98676.12
2018-01-04T04:22:12.011Z,98692.27
2018-01-04T04:24:39.412Z,98698.22
2018-01-04T04:27:06.878Z,98702.83
2018-01-04T04:29:34.321Z,98704.17
2018-01-04T04:32:01.737Z,98715.19
2018-01-04T04:34:29.137Z,98711.91
2018-01-04T04:36:56.570Z,98717.08
2018-01-04T04:39:23.976Z,98716.09
2018-01-04T04:41:52.076Z,98716.74
2018-01-04T04:44:19.522Z,98736.09
2018-01-04T04:46:46.935Z,98732.22
2018-01-04T04:49:14.335Z,98737.90
2018-01-04T04:51:41.766Z,98734.13
2018-01-04T04:54:09.226Z,98735.80
2018-01-04T04:56:36.672Z,98744.55
2018-01-04T04:59:04.091Z,98747.12
2018-01-04T05:01:31.494Z,98751.09
2018-01-04T05:03:58.956Z,98751.11
2018-01-04T05:06:26.359Z,98753.80
2018-01-04T05:08:53.767Z,98745.32
2018-01-04T05:11:22.479Z,98761.64
2018-01-04T05:13:49.886Z,98753.05
2018-01-04T05:16:17.291Z,98753.29
2018-01-04T05:18:44.712Z,98768.50
2018-01-04T05:21:12.948Z,98766.40
2018-01-04T05:23:40.401Z,98770.03
2018-01-04T05:26:07.834Z,98765.56
2018-01-04T05:28:35.243Z,98779.68
2018-01-04T05:31:02.649Z,98773.78
2018-01-04T05:33:30.091Z,98778.73
2018-01-04T05:35:57.502Z,98789.16
2018-01-04T05:38:24.900Z,98787.16
2018-01-04T05:40:52.370Z,98799.80
2018-01-04T05:43:19.744Z,98803.19
2018-01-04T05:45:47.146Z,98795.05
2018-01-04T05:48:14.575Z,98805.61
2018-01-04T05:50:42.000Z,98801.24
2018-01-04T05:53:09.532Z,98796.27
2018-01-04T05:55:36.959Z,98799.70
2018-01-04T05:58:04.373Z,98801.52
2018-01-04T06:00:31.875Z,98797.22
2018-01-04T06:02:59.349Z,98807.44
2018-01-04T06:05:26.775Z,98812.61
2018-01-04T06:07:54.180Z,98805.69
2018-01-04T06:10:22.009Z,98808.52
2018-01-04T06:12:49.470Z,98821.59
2018-01-04T06:15:16.887Z,98819.56
2018-01-04T06:17:44.322Z,98811.55
2018-01-04T06:20:11.751Z,98813.77
2018-01-04T06:25:12.952Z,98821.68
2018-01-04T06:27:40.363Z,98809.84
2018-01-04T06:30:07.825Z,98813.50
2018-01-04T06:32:35.267Z,98823.66
2018-01-04T06:35:02.668Z,98819.01
2018-01-04T06:37:30.095Z,98820.76
2018-01-04T06:39:57.530Z,98830.28
2018-01-04T06:42:25.003Z,98827.72
2018-01-04T06:44:52.410Z,98822.31
2018-01-04T06:47:19.823Z,98829.98
2018-01-04T06:49:47.269Z,98831.03
2018-01-04T06:52:14.670Z,98833.98
2018-01-04T06:54:42.183Z,98833.05
2018-01-04T06:57:09.650Z,98832.88
2018-01-04T06:59:37.054Z,98836.62
2018-01-04T07:02:04.563Z,98848.73
2018-01-04T07:04:32.116Z,98854.81
2018-01-04T07:06:59.668Z,98855.66
2018-01-04T07:09:27.091Z,98864.23
2018-01-04T07:11:54.502Z,98864.67
2018-01-04T07:14:21.904Z,98873.59
2018-01-04T07:16:49.315Z,98875.34
2018-01-04T07:19:16.716Z,98874.97
2018-01-04T07:21:44.172Z,98885.33
2018-01-04T07:24:11.578Z,98884.62
2018-01-04T07:26:38.976Z,98881.56
2018-01-04T07:29:06.490Z,98890.75
2018-01-04T07:31:33.936Z,98889.13
2018-01-04T07:34:01.395Z,98899.62
2018-01-04T07:36:28.815Z,98896.13
2018-01-04T07:38:56.236Z,98895.32
2018-01-04T07:41:23.652Z,98888.05
2018-01-04T07:43:51.085Z,98897.31
2018-01-04T07:46:18.487Z,98888.42
2018-01-04T07:48:45.908Z,98887.15
2018-01-04T07:51:13.326Z,98902.66
2018-01-04T07:53:40.750Z,98903.20
2018-01-04T07:56:08.139Z,98905.89
2018-01-04T07:58:35.556Z,98914.64
2018-01-04T08:01:02.968Z,98916.12
2018-01-04T08:03:30.399Z,98920.80
2018-01-04T08:05:57.792Z,98912.89
2018-01-04T08:08:25.215Z,98916.79
2018-01-04T08:10:52.651Z,98923.86
2018-01-04T08:13:20.055Z,98928.36
2018-01-04T08:15:47.463Z,98924.89
2018-01-04T08:18:14.891Z,98925.47
2018-01-04T08:20:42.293Z,98932.37
2018-01-04T08:23:09.712Z,98928.94
2018-01-04T08:25:37.131Z,98940.52
2018-01-04T08:28:04.540Z,98932.70
2018-01-04T08:30:31.993Z,98942.53
2018-01-04T08:32:59.402Z,98942.86
2018-01-04T08:35:26.896Z,98950.95
2018-01-04T08:37:54.317Z,98944.52
2018-01-04T08:40:21.727Z,98950.71
2018-01-04T08:42:49.156Z,98948.34
2018-01-04T08:45:16.627Z,98955.86
2018-01-04T08:47:44.088Z,98958.52
2018-01-04T08:50:11.535Z,98965.05
2018-01-04T08:52:38.944Z,98969.28
2018-01-04T08:55:06.472Z,98966.73
2018-01-04T08:57:33.909Z,98969.92
2018-01-04T09:00:01.316Z,98964.06
2018-01-04T09:02:28.732Z,98974.20
2018-01-04T09:04:56.170Z,98980.40
2018-01-04T09:07:23.563Z,98974.07
2018-01-04T09:09:51.844Z,98972.45
2018-01-04T09:12:19.280Z,98983.30
2018-01-04T09:14:46.709Z,98985.81
2018-01-04T09:17:14.136Z,98979.17
2018-01-04T09:19:41.572Z,98985.44
2018-01-04T09:22:08.982Z,98981.93
2018-01-04T09:24:36.398Z,98989.88
2018-01-04T09:27:03.824Z,98977.25
2018-01-04T09:29:31.235Z,98985.39
2018-01-04T09:31:58.676Z,98984.08
2018-01-04T09:34:26.087Z,98985.02
2018-01-04T09:36:53.509Z,98990.58
2018-01-04T09:39:20.943Z,98986.40
2018-01-04T09:41:48.360Z,98995.05
2018-01-04T09:44:15.775Z,98992.11
2018-01-04T09:46:43.221Z,98996.74
2018-01-04T09:49:10.636Z,98996.50
2018-01-04T09:51:38.055Z,99000.81
2018-01-04T09:54:05.521Z,99005.29
2018-01-04T09:56:32.928Z,99001.04
2018-01-04T09:59:00.344Z,99005.08
2018-01-04T10:01:27.775Z,98999.02
2018-01-04T10:03:55.188Z,99005.34
2018-01-04T10:06:22.624Z,99004.75
2018-01-04T10:08:50.040Z,99009.80
2018-01-04T10:13:51.316Z,99007.64
2018-01-04T10:16:18.733Z,98999.03
2018-01-04T10:18:46.161Z,99006.02
2018-01-04T10:21:13.793Z,99006.02
2018-01-04T10:23:41.222Z,99010.47
2018-01-04T10:26:08.629Z,98995.75
2018-01-04T10:28:36.081Z,99001.16
2018-01-04T10:31:03.516Z,99007.00
2018-01-04T10:33:30.933Z,99009.13
2018-01-04T10:35:58.380Z,99005.75
2018-01-04T10:38:25.804Z,99002.09
2018-01-04T10:40:53.233Z,99001.23
2018-01-04T10:43:20.668Z,99005.12
2018-01-04T10:45:48.076Z,99009.70
2018-01-04T10:48:15.501Z,99010.75
2018-01-04T10:50:42.987Z,99005.09
2018-01-04T10:53:10.408Z,99007.27
2018-01-04T10:55:37.816Z,99004.39
2018-01-04T10:58:05.264Z,99013.45
2018-01-04T11:00:32.676Z,99005.95
2018-01-04T11:03:00.097Z,99006.27
2018-01-04T11:05:27.549Z,99004.52
2018-01-04T11:07:54.956Z,99005.02
2018-01-04T11:10:22.373Z,98998.82
2018-01-04T11:12:49.817Z,99002.84
2018-01-04T11:15:17.233Z,99008.38
2018-01-04T11:17:44.637Z,99006.81
2018-01-04T11:20:12.084Z,99014.16
2018-01-04T11:22:39.502Z,99004.58
2018-01-04T11:25:06.909Z,98999.73
2018-01-04T11:27:34.343Z,98997.39
2018-01-04T11:30:01.772Z,98997.52
2018-01-04T11:32:29.191Z,98996.87
2018-01-04T11:34:56.629Z,99004.85
2018-01-04T11:37:24.045Z,99001.48
2018-01-04T11:39:51.465Z,99006.98
2018-01-04T11:42:18.968Z,99003.21
2018-01-04T11:44:46.444Z,99005.50
2018-01-04T11:47:13.901Z,99012.32
2018-01-04T11:49:41.315Z,99012.63
2018-01-04T11:52:08.737Z,99013.69
2018-01-04T11:54:36.261Z,99004.91
2018-01-04T11:57:03.680Z,99009.80
2018-01-04T11:59:31.146Z,98998.06
2018-01-04T12:01:58.557Z,98999.81
2018-01-04T12:04:25.976Z,99002.19
2018-01-04T12:06:53.425Z,98995.08
2018-01-04T12:09:20.851Z,99000.64
2018-01-04T12:11:48.270Z,98993.57
2018-01-04T12:14:15.708Z,99000.13
2018-01-04T12:16:43.168Z,98994.58
2018-01-04T12:19:10.620Z,99003.02
2018-01-04T12:21:38.078Z,98999.50
2018-01-04T12:24:05.500Z,99001.00
2018-01-04T12:26:32.923Z,98998.83
2018-01-04T12:29:00.361Z,98995.05
2018-01-04T12:31:27.816Z,98988.66
2018-01-04T12:33:55.262Z,98992.84
2018-01-04T12:36:22.686Z,98993.41
2018-01-04T12:38:50.134Z,98992.82
2018-01-04T12:41:17.546Z,98986.68
2018-01-04T12:43:44.984Z,98992.41
2018-01-04T12:46:12.453Z,98983.64
2018-01-04T12:48:39.827Z,98984.31
2018-01-04T12:51:07.240Z,98978.23
2018-01-04T12:53:34.699Z,98982.66
2018-01-04T12:56:02.113Z,98989.78
2018-01-04T12:58:29.518Z,98988.52
2018-01-04T13:00:56.964Z,98994.17
2018-01-04T13:03:24.384Z,98994.39
2018-01-04T13:05:51.890Z,98997.20
2018-01-04T13:08:19.334Z,98991.84
2018-01-04T13:10:46.744Z,98993.27
2018-01-04T13:13:14.270Z,98992.59
2018-01-04T13:15:41.711Z,98988.95
2018-01-04T13:18:09.125Z,98980.70
2018-01-04T13:20:36.530Z,98982.45
2018-01-04T13:23:03.968Z,98982.28
2018-01-04T13:25:31.445Z,98986.90
2018-01-04T13:27:58.856Z,98984.77
2018-01-04T13:30:26.287Z,98982.25
2018-01-04T13:32:53.704Z,98980.23
2018-01-04T13:35:21.111Z,98991.34
2018-01-04T13:37:48.546Z,98990.56
2018-01-04T13:40:15.956Z,98983.97
2018-01-04T13:42:43.361Z,98988.30
2018-01-04T13:45:10.801Z,98986.28
2018-01-04T13:47:38.223Z,98990.66
2018-01-04T13:50:05.625Z,98993.25
2018-01-04T13:52:33.066Z,98980.34
2018-01-04T13:55:00.569Z,98983.61
2018-01-04T13:57:27.937Z,98981.19
2018-01-04T13:59:55.366Z,98984.05
2018-01-04T14:02:22.775Z,98982.43
2018-01-04T14:04:50.183Z,98976.88
2018-01-04T14:07:17.699Z,98971.59
2018-01-04T14:09:45.104Z,98968.46
2018-01-04T14:12:12.510Z,98968.09
2018-01-04T14:14:39.953Z,98968.55
2018-01-04T14:17:07.363Z,98962.76
2018-01-04T14:19:34.769Z,98959.77
2018-01-04T14:22:02.233Z,98968.06
2018-01-04T14:24:29.639Z,98963.31
2018-01-04T14:26:57.175Z,98963.02
2018-01-04T14:29:24.604Z,98958.38
2018-01-04T14:31:52.952Z,98960.56
2018-01-04T14:34:20.387Z,98963.16
2018-01-04T14:36:47.817Z,98962.56
2018-01-04T14:39:15.234Z,98963.13
2018-01-04T14:41:42.673Z,98968.48
2018-01-04T14:44:10.092Z,98970.73
2018-01-04T14:46:37.528Z,98973.97
2018-01-04T14:49:04.984Z,98973.30
2018-01-04T14:51:32.411Z,98980.50
2018-01-04T14:53:59.831Z,98977.06
2018-01-04T14:56:27.290Z,98975.89
2018-01-04T14:58:54.695Z,98974.88
2018-01-04T15:01:22.111Z,98977.57
2018-01-04T15:03:49.540Z,98980.87
2018-01-04T15:06:16.964Z,98973.36
2018-01-04T15:08:44.378Z,98980.13
2018-01-04T15:11:11.816Z,98970.56
2018-01-04T15:13:39.236Z,98965.81
2018-01-04T15:16:06.669Z,98957.87
2018-01-04T15:18:34.096Z,98951.78
2018-01-04T15:21:03.038Z,98957.27
2018-01-04T15:23:30.448Z,98964.55
2018-01-04T15:25:57.888Z,98960.12
2018-01-04T15:28:25.303Z,98965.11
2018-01-04T15:30:52.717Z,98958.65
2018-01-04T15:33:20.147Z,98958.81
2018-01-04T15:35:47.560Z,98965.14
2018-01-04T15:38:14.973Z,98962.95
2018-01-04T15:40:42.413Z,98952.15
2018-01-04T15:43:09.827Z,98953.57
2018-01-04T15:45:37.271Z,98959.59
2018-01-04T15:48:04.701Z,98956.43
2018-01-04T15:50:32.116Z,98953.47
2018-01-04T15:52:59.528Z,98957.11
2018-01-04T15:55:27.051Z,98955.25
2018-01-04T15:57:54.455Z,98947.61
2018-01-04T16:00:21.977Z,98942.13
2018-01-04T16:02:49.411Z,98940.51
2018-01-04T16:05:16.819Z,98935.49
2018-01-04T16:07:44.232Z,98936.57
2018-01-04T16:10:11.677Z,98928.76
2018-01-04T16:12:39.108Z,98927.31
2018-01-04T16:15:06.609Z,98924.92
2018-01-04T16:17:34.038Z,98922.53
2018-01-04T16:20:01.443Z,98917.75
2018-01-04T16:22:28.864Z,98918.86
2018-01-04T16:24:56.352Z,98912.63
2018-01-04T16:27:23.744Z,98915.87
2018-01-04T16:29:51.258Z,98918.45
2018-01-04T16:32:18.689Z,98921.39
2018-01-04T16:34:46.091Z,98919.73
2018-01-04T16:37:13.508Z,98912.47
2018-01-04T16:39:40.955Z,98907.93
2018-01-04T16:42:08.391Z,98902.65
2018-01-04T16:44:35.820Z,98900.53
2018-01-04T16:47:03.352Z,98896.33
2018-01-04T16:49:30.817Z,98889.67
2018-01-04T16:51:58.232Z,98881.13
2018-01-04T16:54:25.731Z,98872.61
2018-01-04T16:56:53.146Z,98876.88
2018-01-04T16:59:20.550Z,98876.52
2018-01-04T17:01:47.983Z,98869.14
2018-01-04T17:04:15.391Z,98869.55
2018-01-04T17:06:42.817Z,98861.17
2018-01-04T17:09:10.263Z,98869.38
2018-01-04T17:11:37.691Z,98865.75
2018-01-04T17:14:05.165Z,98863.97
2018-01-04T17:16:32.571Z,98863.94
2018-01-04T17:18:59.996Z,98859.89
2018-01-04T17:21:27.409Z,98863.16
2018-01-04T17:23:54.819Z,98866.69
2018-01-04T17:26:22.263Z,98860.94
2018-01-04T17:28:49.685Z,98857.60
2018-01-04T17:31:17.095Z,98857.20
2018-01-04T17:33:44.640Z,98849.59
2018-01-04T17:36:12.051Z,98852.38
2018-01-04T17:38:39.542Z,98849.16
2018-01-04T17:41:06.967Z,98849.02
2018-01-04T17:43:34.366Z,98845.89
2018-01-04T17:46:01.783Z,98843.30
2018-01-04T17:48:29.216Z,98842.20
2018-01-04T17:50:56.623Z,98835.14
2018-01-04T17:53:24.165Z,98832.81
2018-01-04T17:55:51.598Z,98832.78
2018-01-04T17:58:18.980Z,98827.50
2018-01-04T18:00:46.419Z,98825.25
2018-01-04T18:03:13.834Z,98821.59
2018-01-04T18:05:41.247Z,98816.58
2018-01-04T18:08:08.688Z,98813.45
2018-01-04T18:10:36.095Z,98815.36
2018-01-04T18:13:03.530Z,98821.95
2018-01-04T18:15:30.975Z,98822.93
2018-01-04T18:17:58.431Z,98827.67
2018-01-04T18:20:25.831Z,98818.98
2018-01-04T18:22:53.355Z,98819.99
2018-01-04T18:25:20.811Z,98812.45
2018-01-04T18:27:48.278Z,98796.30
2018-01-04T18:30:15.703Z,98802.06
2018-01-04T18:32:43.123Z,98802.33
2018-01-04T18:35:10.544Z,98801.83
2018-01-04T18:37:38.087Z,98800.08
2018-01-04T18:40:05.616Z,98803.06
2018-01-04T18:42:33.127Z,98800.38
2018-01-04T18:45:00.612Z,98796.34
2018-01-04T18:47:28.047Z,98788.66
2018-01-04T18:49:55.450Z,98786.52
2018-01-04T18:52:22.950Z,98775.61
2018-01-04T18:54:50.379Z,98775.05
2018-01-04T18:57:17.845Z,98770.60
2018-01-04T18:59:45.255Z,98771.97
2018-01-04T19:02:12.759Z,98767.30
2018-01-04T19:04:40.166Z,98765.98
2018-01-04T19:07:07.580Z,98763.72
2018-01-04T19:09:35.017Z,98766.16
2018-01-04T19:12:02.423Z,98757.93
2018-01-04T19:14:29.855Z,98748.72
2018-01-04T19:16:57.283Z,98749.66
2018-01-04T19:19:24.696Z,98753.73
2018-01-04T19:21:52.108Z,98744.73
2018-01-04T19:24:19.566Z,98748.94
2018-01-04T19:26:46.980Z,98747.99
2018-01-04T19:29:14.494Z,98738.59
2018-01-04T19:31:41.934Z,98738.19
2018-01-04T19:34:09.344Z,98733.34
2018-01-04T19:36:36.748Z,98726.62
2018-01-04T19:39:04.175Z,98717.48
2018-01-04T19:41:31.597Z,98713.37
2018-01-04T19:43:59.028Z,98714.03
2018-01-04T19:46:26.497Z,98704.48
2018-01-04T19:48:53.951Z,98699.58
2018-01-04T19:51:21.433Z,98687.28
2018-01-04T19:53:48.840Z,98691.98
2018-01-04T19:56:16.247Z,98688.48
2018-01-04T19:58:43.678Z,98683.58
2018-01-04T20:01:11.123Z,98680.84
2018-01-04T20:03:38.534Z,98673.25
2018-01-04T20:06:05.952Z,98674.17
2018-01-04T20:08:33.396Z,98669.44
2018-01-04T20:11:00.816Z,98662.47
2018-01-04T20:13:28.220Z,98659.50
2018-01-04T20:15:55.644Z,98654.42
2018-01-04T20:18:23.106Z,98654.80
2018-01-04T20:20:50.527Z,98647.93
2018-01-04T20:23:17.935Z,98649.44
2018-01-04T20:25:45.386Z,98638.65
2018-01-04T20:28:12.794Z,98635.39
2018-01-04T20:30:40.204Z,98632.30
2018-01-04T20:33:07.643Z,98626.11
2018-01-04T20:35:35.208Z,98620.33
2018-01-04T20:38:02.624Z,98608.59
2018-01-04T20:40:30.032Z,98611.69
2018-01-04T20:42:57.449Z,98605.98
2018-01-04T20:45:24.951Z,98604.94
2018-01-04T20:47:52.530Z,98602.25
2018-01-04T20:50:19.939Z,98604.27
2018-01-04T20:52:47.383Z,98594.20
2018-01-04T20:55:14.859Z,98592.56
2018-01-04T20:57:43.343Z,98583.52
2018-01-04T21:00:10.766Z,98571.77
2018-01-04T21:02:38.211Z,98565.95
2018-01-04T21:05:05.610Z,98566.05
2018-01-04T21:07:33.007Z,98562.80
2018-01-04T21:10:00.436Z,98550.97
2018-01-04T21:12:27.879Z,98546.91
2018-01-04T21:14:55.368Z,98542.77
2018-01-04T21:17:22.788Z,98536.45
2018-01-04T21:19:50.227Z,98533.45
2018-01-04T21:22:17.631Z,98533.35
2018-01-04T21:24:45.043Z,98524.80
2018-01-04T21:27:12.526Z,98516.83
2018-01-04T21:29:39.993Z,98520.84
2018-01-04T21:32:07.534Z,98514.25
2018-01-04T21:34:35.003Z,98510.57
2018-01-04T21:37:02.467Z,98503.83
2018-01-04T21:39:29.883Z,98498.13
2018-01-04T21:41:57.353Z,98488.98
2018-01-04T21:44:24.728Z,98477.31
2018-01-04T21:46:52.327Z,98484.08
2018-01-04T21:49:19.764Z,98481.84
2018-01-04T21:51:47.200Z,98498.41
2018-01-04T21:54:14.668Z,98490.34
2018-01-04T21:56:42.133Z,98493.83
2018-01-04T21:59:09.559Z,98498.56
2018-01-04T22:01:36.977Z,98500.58
2018-01-04T22:04:04.395Z,98489.73
2018-01-04T22:06:31.892Z,98489.73
2018-01-04T22:08:59.301Z,98483.59
2018-01-04T22:11:26.742Z,98480.80
2018-01-04T22:13:54.142Z,98486.49
2018-01-04T22:16:21.554Z,98472.12
2018-01-04T22:18:48.978Z,98464.34
2018-01-04T22:21:16.388Z,98451.83
2018-01-04T22:23:43.852Z,98452.64
2018-01-04T22:26:11.870Z,98445.09
2018-01-04T22:28:39.282Z,98439.03
2018-01-04T22:31:06.708Z,98437.52
2018-01-04T22:33:34.184Z,98446.14
2018-01-04T22:36:01.635Z,98450.02
2018-01-04T22:38:29.096Z,98459.33
2018-01-04T22:40:56.504Z,98458.31
2018-01-04T22:43:23.945Z,98469.91
2018-01-04T22:45:51.349Z,98452.73
2018-01-04T22:48:18.771Z,98433.06
2018-01-04T22:50:47.042Z,98434.92
2018-01-04T22:53:14.469Z,98451.65
2018-01-04T22:55:41.916Z,98447.37
2018-01-04T22:58:09.325Z,98455.61
2018-01-04T23:00:36.736Z,98448.21
2018-01-04T23:03:04.164Z,98458.99
2018-01-04T23:05:31.589Z,98447.31
2018-01-04T23:07:59.052Z,98461.73
2018-01-04T23:10:26.468Z,98450.80
2018-01-04T23:12:53.891Z,98451.41
2018-01-04T23:15:21.324Z,98465.80
2018-01-04T23:17:48.776Z,98470.22
2018-01-04T23:20:16.193Z,98457.68
2018-01-04T23:22:43.645Z,98450.12
2018-01-04T23:25:11.052Z,98450.89
2018-01-04T23:27:38.464Z,98442.00
2018-01-04T23:30:05.893Z,98441.04
2018-01-04T23:32:33.311Z,98436.84
2018-01-04T23:35:00.728Z,98443.73
2018-01-04T23:37:28.168Z,98438.06
2018-01-04T23:39:55.596Z,98441.45
2018-01-04T23:42:23.004Z,98451.16
2018-01-04T23:44:50.437Z,98452.52
2018-01-04T23:47:17.845Z,98447.18
2018-01-04T23:49:45.319Z,98453.80
2018-01-04T23:52:12.778Z,98457.30
2018-01-04T23:54:40.160Z,98457.31
2018-01-04T23:57:07.595Z,98459.50
